createdAt,value
2023-02-12T00:00:14.685Z,0.00
2023-02-12T00:01:04.670Z,0.00
2023-02-12T00:01:54.721Z,0.00
2023-02-12T00:02:44.692Z,0.00
2023-02-12T00:03:34.766Z,0.00
2023-02-12T00:04:24.632Z,0.00
2023-02-12T00:05:14.645Z,0.00
2023-02-12T00:06:04.618Z,0.00
2023-02-12T00:06:54.609Z,0.00
2023-02-12T00:07:44.600Z,0.00
2023-02-12T00:08:34.600Z,0.00
2023-02-12T00:09:24.612Z,0.00
2023-02-12T00:10:14.718Z,0.00
2023-02-12T00:11:04.553Z,0.00
2023-02-12T00:11:54.549Z,0.00
2023-02-12T00:12:44.541Z,0.00
2023-02-12T00:13:34.540Z,0.00
2023-02-12T00:14:24.519Z,0.00
2023-02-12T00:15:14.533Z,0.00
2023-02-12T00:16:04.547Z,0.00
2023-02-12T00:16:54.508Z,0.00
2023-02-12T00:17:44.490Z,0.00
2023-02-12T00:18:34.489Z,0.00
2023-02-12T00:19:24.466Z,0.00
2023-02-12T00:20:14.486Z,0.00
2023-02-12T00:21:04.454Z,0.00
2023-02-12T00:21:54.447Z,0.00
2023-02-12T00:22:44.431Z,0.00
2023-02-12T00:23:34.425Z,0.00
2023-02-12T00:24:24.429Z,0.00
2023-02-12T00:25:14.536Z,0.00
2023-02-12T00:26:04.400Z,0.00
2023-02-12T00:26:54.407Z,0.00
2023-02-12T00:27:44.385Z,0.00
2023-02-12T00:28:34.485Z,0.00
2023-02-12T00:29:24.369Z,0.00
2023-02-12T00:30:14.360Z,0.00
2023-02-12T00:31:04.494Z,0.00
2023-02-12T00:31:54.380Z,0.00
2023-02-12T00:32:44.315Z,0.00
2023-02-12T00:33:34.337Z,0.00
2023-02-12T00:34:24.322Z,0.00
2023-02-12T00:35:14.295Z,0.00
2023-02-12T00:36:04.303Z,0.00
2023-02-12T00:36:54.300Z,0.00
2023-02-12T00:37:44.297Z,0.00
2023-02-12T00:38:34.271Z,0.00
2023-02-12T00:39:24.244Z,0.00
2023-02-12T00:40:14.244Z,0.00
2023-02-12T00:41:04.262Z,0.00
2023-02-12T00:41:54.247Z,0.00
2023-02-12T00:42:44.215Z,0.00
2023-02-12T00:43:34.212Z,0.00
2023-02-12T00:44:24.194Z,0.00
2023-02-12T00:45:14.200Z,0.00
2023-02-12T00:46:04.204Z,0.00
2023-02-12T00:46:54.174Z,0.00
2023-02-12T00:47:44.169Z,0.00
2023-02-12T00:48:34.149Z,0.00
2023-02-12T00:49:24.153Z,0.00
2023-02-12T00:50:14.150Z,0.00
2023-02-12T00:51:04.145Z,0.00
2023-02-12T00:51:54.114Z,0.00
2023-02-12T00:52:44.104Z,0.00
2023-02-12T00:53:34.105Z,0.00
2023-02-12T00:54:24.081Z,0.00
2023-02-12T00:55:14.078Z,0.00
2023-02-12T00:56:04.079Z,0.00
2023-02-12T00:56:54.088Z,0.00
2023-02-12T00:57:44.040Z,0.00
2023-02-12T00:58:34.054Z,0.00
2023-02-12T00:59:24.026Z,0.00
2023-02-12T01:00:14.031Z,0.00
2023-02-12T01:01:04.029Z,0.00
2023-02-12T01:01:54.023Z,0.00
2023-02-12T01:02:43.988Z,0.00
2023-02-12T01:03:33.992Z,0.00
2023-02-12T01:04:23.979Z,0.00
2023-02-12T01:05:14.055Z,0.00
2023-02-12T01:06:03.960Z,0.00
2023-02-12T01:06:53.971Z,0.00
2023-02-12T01:07:43.937Z,0.00
2023-02-12T01:08:33.964Z,0.00
2023-02-12T01:09:23.941Z,0.00
2023-02-12T01:10:13.909Z,0.00
2023-02-12T01:11:03.901Z,0.00
2023-02-12T01:11:53.898Z,0.00
2023-02-12T01:12:43.882Z,0.00
2023-02-12T01:13:33.901Z,0.00
2023-02-12T01:14:23.867Z,0.00
2023-02-12T01:15:13.881Z,0.00
2023-02-12T01:16:03.950Z,0.00
2023-02-12T01:16:53.860Z,0.00
2023-02-12T01:17:43.830Z,0.00
2023-02-12T01:18:33.857Z,0.00
2023-02-12T01:19:23.819Z,0.00
2023-02-12T01:20:13.808Z,0.00
2023-02-12T01:21:03.795Z,0.00
2023-02-12T01:21:53.796Z,0.00
2023-02-12T01:22:43.776Z,0.00
2023-02-12T01:23:33.786Z,0.00
2023-02-12T01:24:23.768Z,0.00
2023-02-12T01:25:13.754Z,0.00
2023-02-12T01:26:03.742Z,0.00
2023-02-12T01:26:53.757Z,0.00
2023-02-12T01:27:43.789Z,0.00
2023-02-12T01:28:33.751Z,0.00
2023-02-12T01:29:23.705Z,0.00
2023-02-12T01:30:13.708Z,0.00
2023-02-12T01:31:03.727Z,0.00
2023-02-12T01:31:53.835Z,0.00
2023-02-12T01:32:43.667Z,0.00
2023-02-12T01:33:33.668Z,0.00
2023-02-12T01:34:23.674Z,0.00
2023-02-12T01:35:13.647Z,0.00
2023-02-12T01:36:03.632Z,0.00
2023-02-12T01:36:53.628Z,0.00
2023-02-12T01:37:43.636Z,0.00
2023-02-12T01:38:33.608Z,0.00
2023-02-12T01:39:23.614Z,0.00
2023-02-12T01:40:13.596Z,0.00
2023-02-12T01:41:03.580Z,0.00
2023-02-12T01:41:53.590Z,0.00
2023-02-12T01:42:43.557Z,0.00
2023-02-12T01:43:33.555Z,0.00
2023-02-12T01:44:23.564Z,0.00
2023-02-12T01:45:13.567Z,0.00
2023-02-12T01:46:03.584Z,0.00
2023-02-12T01:46:53.592Z,0.00
2023-02-12T01:47:43.508Z,0.00
2023-02-12T01:48:33.502Z,0.00
2023-02-12T01:49:23.508Z,0.00
2023-02-12T01:50:13.486Z,0.00
2023-02-12T01:51:03.476Z,0.00
2023-02-12T01:51:53.462Z,0.00
2023-02-12T01:52:43.454Z,0.00
2023-02-12T01:53:33.445Z,0.00
2023-02-12T01:54:23.444Z,0.00
2023-02-12T01:55:13.446Z,0.00
2023-02-12T01:56:03.428Z,0.00
2023-02-12T01:56:53.427Z,0.00
2023-02-12T01:57:43.404Z,0.00
2023-02-12T01:58:33.395Z,0.00
2023-02-12T01:59:23.370Z,0.00
2023-02-12T02:00:13.390Z,0.00
2023-02-12T02:01:03.357Z,0.00
2023-02-12T02:01:53.431Z,0.00
2023-02-12T02:02:43.340Z,0.00
2023-02-12T02:03:33.381Z,0.00
2023-02-12T02:04:23.317Z,0.00
2023-02-12T02:05:13.340Z,0.00
2023-02-12T02:06:03.307Z,0.00
2023-02-12T02:06:53.318Z,0.00
2023-02-12T02:07:43.288Z,0.00
2023-02-12T02:08:33.290Z,0.00
2023-02-12T02:09:23.288Z,0.00
2023-02-12T02:10:13.280Z,0.00
2023-02-12T02:11:03.254Z,0.00
2023-02-12T02:11:53.247Z,0.00
2023-02-12T02:12:43.237Z,0.00
2023-02-12T02:13:33.243Z,0.00
2023-02-12T02:14:23.213Z,0.00
2023-02-12T02:15:13.203Z,0.00
2023-02-12T02:16:03.220Z,0.00
2023-02-12T02:16:53.190Z,0.00
2023-02-12T02:17:43.176Z,0.00
2023-02-12T02:18:33.193Z,0.00
2023-02-12T02:19:23.152Z,0.00
2023-02-12T02:20:13.171Z,0.00
2023-02-12T02:21:03.152Z,0.00
2023-02-12T02:21:53.139Z,0.00
2023-02-12T02:22:43.133Z,0.00
2023-02-12T02:23:33.120Z,0.00
2023-02-12T02:24:23.105Z,0.00
2023-02-12T02:25:13.110Z,0.00
2023-02-12T02:26:03.097Z,0.00
2023-02-12T02:26:53.078Z,0.00
2023-02-12T02:27:43.064Z,0.00
2023-02-12T02:28:33.070Z,0.00
2023-02-12T02:29:23.040Z,0.00
2023-02-12T02:30:13.059Z,0.00
2023-02-12T02:31:03.142Z,0.00
2023-02-12T02:31:53.069Z,0.00
2023-02-12T02:32:43.007Z,0.00
2023-02-12T02:33:33.000Z,0.00
2023-02-12T02:34:22.988Z,0.00
2023-02-12T02:35:12.985Z,0.00
2023-02-12T02:36:03.001Z,0.00
2023-02-12T02:37:00.485Z,0.00
2023-02-12T02:37:43.975Z,0.00
2023-02-12T02:38:32.943Z,0.00
2023-02-12T02:39:22.936Z,0.00
2023-02-12T02:40:12.954Z,0.00
2023-02-12T02:41:02.915Z,0.00
2023-02-12T02:41:52.915Z,0.00
2023-02-12T02:42:42.897Z,0.00
2023-02-12T02:43:32.889Z,0.00
2023-02-12T02:44:22.882Z,0.00
2023-02-12T02:45:12.875Z,0.00
2023-02-12T02:46:02.882Z,0.00
2023-02-12T02:46:52.934Z,0.00
2023-02-12T02:47:42.843Z,0.00
2023-02-12T02:48:32.867Z,0.00
2023-02-12T02:49:22.847Z,0.00
2023-02-12T02:50:12.828Z,0.00
2023-02-12T02:51:02.820Z,0.00
2023-02-12T02:51:52.807Z,0.00
2023-02-12T02:52:42.801Z,0.00
2023-02-12T02:53:32.801Z,0.00
2023-02-12T02:54:22.770Z,0.00
2023-02-12T02:55:12.773Z,0.00
2023-02-12T02:56:02.742Z,0.00
2023-02-12T02:56:52.749Z,0.00
2023-02-12T02:57:42.808Z,0.00
2023-02-12T02:58:32.731Z,0.00
2023-02-12T02:59:22.737Z,0.00
2023-02-12T03:00:12.706Z,0.00
2023-02-12T03:01:02.724Z,0.00
2023-02-12T03:01:52.688Z,0.00
2023-02-12T03:02:42.715Z,0.00
2023-02-12T03:03:32.680Z,0.00
2023-02-12T03:04:22.660Z,0.00
2023-02-12T03:05:12.661Z,0.00
2023-02-12T03:06:02.643Z,0.00
2023-02-12T03:06:52.650Z,0.00
2023-02-12T03:07:42.650Z,0.00
2023-02-12T03:08:32.620Z,0.00
2023-02-12T03:09:22.601Z,0.00
2023-02-12T03:10:12.610Z,0.00
2023-02-12T03:11:02.588Z,0.00
2023-02-12T03:11:52.592Z,0.00
2023-02-12T03:12:42.592Z,0.00
2023-02-12T03:13:32.567Z,0.00
2023-02-12T03:14:22.549Z,0.00
2023-02-12T03:15:12.544Z,0.00
2023-02-12T03:16:02.573Z,0.00
2023-02-12T03:16:52.546Z,0.00
2023-02-12T03:17:42.507Z,0.00
2023-02-12T03:18:32.530Z,0.00
2023-02-12T03:19:22.497Z,0.00
2023-02-12T03:20:12.493Z,0.00
2023-02-12T03:21:02.497Z,0.00
2023-02-12T03:21:52.476Z,0.00
2023-02-12T03:22:42.459Z,0.00
2023-02-12T03:23:32.482Z,0.00
2023-02-12T03:24:22.437Z,0.00
2023-02-12T03:25:12.457Z,0.00
2023-02-12T03:26:02.428Z,0.00
2023-02-12T03:26:52.419Z,0.00
2023-02-12T03:27:42.399Z,0.00
2023-02-12T03:28:32.450Z,0.00
2023-02-12T03:29:22.388Z,0.00
2023-02-12T03:30:12.388Z,0.00
2023-02-12T03:31:02.414Z,0.00
2023-02-12T03:31:52.390Z,0.00
2023-02-12T03:32:42.367Z,0.00
2023-02-12T03:33:32.338Z,0.00
2023-02-12T03:34:22.348Z,0.00
2023-02-12T03:35:12.337Z,0.00
2023-02-12T03:36:02.328Z,0.00
2023-02-12T03:36:52.309Z,0.00
2023-02-12T03:37:42.331Z,0.00
2023-02-12T03:38:32.288Z,0.00
2023-02-12T03:39:22.297Z,0.00
2023-02-12T03:40:12.271Z,0.00
2023-02-12T03:41:02.284Z,0.00
2023-02-12T03:41:52.277Z,0.00
2023-02-12T03:42:42.256Z,0.00
2023-02-12T03:43:32.263Z,0.00
2023-02-12T03:44:22.236Z,0.00
2023-02-12T03:45:12.225Z,0.00
2023-02-12T03:46:02.329Z,0.00
2023-02-12T03:46:52.202Z,0.00
2023-02-12T03:47:42.197Z,0.00
2023-02-12T03:48:32.203Z,0.00
2023-02-12T03:49:22.200Z,0.00
2023-02-12T03:50:12.165Z,0.00
2023-02-12T03:51:02.161Z,0.00
2023-02-12T03:51:52.144Z,0.00
2023-02-12T03:52:42.140Z,0.00
2023-02-12T03:53:32.133Z,0.00
2023-02-12T03:54:22.128Z,0.00
2023-02-12T03:55:12.104Z,0.00
2023-02-12T03:56:02.115Z,0.00
2023-02-12T03:56:52.192Z,0.00
2023-02-12T03:57:42.087Z,0.00
2023-02-12T03:58:32.091Z,0.00
2023-02-12T03:59:22.069Z,0.00
2023-02-12T04:00:12.061Z,0.00
2023-02-12T04:01:02.094Z,0.00
2023-02-12T04:01:52.127Z,0.00
2023-02-12T04:02:42.051Z,0.00
2023-02-12T04:03:32.028Z,0.00
2023-02-12T04:04:22.050Z,0.00
2023-02-12T04:05:11.991Z,0.00
2023-02-12T04:06:01.995Z,0.00
2023-02-12T04:06:51.977Z,0.00
2023-02-12T04:07:41.986Z,0.00
2023-02-12T04:08:31.965Z,0.00
2023-02-12T04:09:21.975Z,0.00
2023-02-12T04:10:11.942Z,0.00
2023-02-12T04:11:01.944Z,0.00
2023-02-12T04:11:51.934Z,0.00
2023-02-12T04:12:41.914Z,0.00
2023-02-12T04:13:31.914Z,0.00
2023-02-12T04:14:21.914Z,0.00
2023-02-12T04:15:11.882Z,0.00
2023-02-12T04:16:01.899Z,0.00
2023-02-12T04:16:51.905Z,0.00
2023-02-12T04:17:41.851Z,0.00
2023-02-12T04:18:31.844Z,0.00
2023-02-12T04:19:21.844Z,0.00
2023-02-12T04:20:11.865Z,0.00
2023-02-12T04:21:01.841Z,0.00
2023-02-12T04:21:51.808Z,0.00
2023-02-12T04:22:41.810Z,0.00
2023-02-12T04:23:31.805Z,0.00
2023-02-12T04:24:21.810Z,0.00
2023-02-12T04:25:11.805Z,0.00
2023-02-12T04:26:01.773Z,0.00
2023-02-12T04:26:51.757Z,0.00
2023-02-12T04:27:41.924Z,0.00
2023-02-12T04:28:31.785Z,0.00
2023-02-12T04:29:21.738Z,0.00
2023-02-12T04:30:11.751Z,0.00
2023-02-12T04:31:01.870Z,0.00
2023-02-12T04:31:51.876Z,0.00
2023-02-12T04:32:41.702Z,0.00
2023-02-12T04:33:31.690Z,0.00
2023-02-12T04:34:21.691Z,0.00
2023-02-12T04:35:11.683Z,0.00
2023-02-12T04:36:01.691Z,0.00
2023-02-12T04:36:51.654Z,0.00
2023-02-12T04:37:41.652Z,0.00
2023-02-12T04:38:31.635Z,0.00
2023-02-12T04:39:21.633Z,0.00
2023-02-12T04:40:11.654Z,0.00
2023-02-12T04:41:01.612Z,0.00
2023-02-12T04:41:51.599Z,0.00
2023-02-12T04:42:41.603Z,0.00
2023-02-12T04:43:31.585Z,0.00
2023-02-12T04:44:21.593Z,0.00
2023-02-12T04:45:11.563Z,0.00
2023-02-12T04:46:01.629Z,0.00
2023-02-12T04:46:51.541Z,0.00
2023-02-12T04:47:41.538Z,0.00
2023-02-12T04:48:31.521Z,0.00
2023-02-12T04:49:21.524Z,0.00
2023-02-12T04:50:11.537Z,0.00
2023-02-12T04:51:01.503Z,0.00
2023-02-12T04:51:51.491Z,0.00
2023-02-12T04:52:41.495Z,0.00
2023-02-12T04:53:31.483Z,0.00
2023-02-12T04:54:21.468Z,0.00
2023-02-12T04:55:11.450Z,0.00
2023-02-12T04:56:01.464Z,0.00
2023-02-12T04:56:51.453Z,0.00
2023-02-12T04:57:41.432Z,0.00
2023-02-12T04:58:31.430Z,0.00
2023-02-12T04:59:21.410Z,0.00
2023-02-12T05:00:11.397Z,0.00
2023-02-12T05:01:01.454Z,0.00
2023-02-12T05:01:51.442Z,0.00
2023-02-12T05:02:41.389Z,0.00
2023-02-12T05:03:31.361Z,0.00
2023-02-12T05:04:21.355Z,0.00
2023-02-12T05:05:11.363Z,0.00
2023-02-12T05:06:01.339Z,0.00
2023-02-12T05:06:51.349Z,0.00
2023-02-12T05:07:41.420Z,0.00
2023-02-12T05:08:31.303Z,0.00
2023-02-12T05:09:21.308Z,0.00
2023-02-12T05:10:11.287Z,0.00
2023-02-12T05:11:01.289Z,0.00
2023-02-12T05:11:51.318Z,0.00
2023-02-12T05:12:41.266Z,0.00
2023-02-12T05:13:31.262Z,0.00
2023-02-12T05:14:21.259Z,0.00
2023-02-12T05:15:11.236Z,0.00
2023-02-12T05:16:01.253Z,0.00
2023-02-12T05:16:51.237Z,0.00
2023-02-12T05:17:41.214Z,0.00
2023-02-12T05:18:31.215Z,0.00
2023-02-12T05:19:21.209Z,0.00
2023-02-12T05:20:11.175Z,0.00
2023-02-12T05:21:01.175Z,0.00
2023-02-12T05:21:51.182Z,0.00
2023-02-12T05:22:41.156Z,0.00
2023-02-12T05:23:31.148Z,0.00
2023-02-12T05:24:21.163Z,0.00
2023-02-12T05:25:11.140Z,0.00
2023-02-12T05:26:01.122Z,0.00
2023-02-12T05:26:51.111Z,0.00
2023-02-12T05:27:41.101Z,0.00
2023-02-12T05:28:31.128Z,0.00
2023-02-12T05:29:21.107Z,0.00
2023-02-12T05:30:11.088Z,0.00
2023-02-12T05:31:01.188Z,0.00
2023-02-12T05:31:51.228Z,0.00
2023-02-12T05:32:41.054Z,0.00
2023-02-12T05:33:31.046Z,0.00
2023-02-12T05:34:21.042Z,0.00
2023-02-12T05:35:11.013Z,0.00
2023-02-12T05:36:01.022Z,0.00
2023-02-12T05:36:50.995Z,0.00
2023-02-12T05:37:40.994Z,0.00
2023-02-12T05:38:30.989Z,0.00
2023-02-12T05:39:20.979Z,0.00
2023-02-12T05:40:10.960Z,0.00
2023-02-12T05:41:00.955Z,0.00
2023-02-12T05:41:50.940Z,0.00
2023-02-12T05:42:40.929Z,0.00
2023-02-12T05:43:30.923Z,0.00
2023-02-12T05:44:20.928Z,0.00
2023-02-12T05:45:10.895Z,0.00
2023-02-12T05:46:00.993Z,0.00
2023-02-12T05:46:50.957Z,0.00
2023-02-12T05:47:40.880Z,0.00
2023-02-12T05:48:30.872Z,0.00
2023-02-12T05:49:20.879Z,0.00
2023-02-12T05:50:10.880Z,0.00
2023-02-12T05:51:00.849Z,0.00
2023-02-12T05:51:50.834Z,0.00
2023-02-12T05:52:40.826Z,0.00
2023-02-12T05:53:30.830Z,0.00
2023-02-12T05:54:20.832Z,0.00
2023-02-12T05:55:10.802Z,0.00
2023-02-12T05:56:00.813Z,0.00
2023-02-12T05:56:50.778Z,0.00
2023-02-12T05:57:40.770Z,0.00
2023-02-12T05:58:30.770Z,0.00
2023-02-12T05:59:20.756Z,0.00
2023-02-12T06:00:10.802Z,0.00
2023-02-12T06:01:00.736Z,0.00
2023-02-12T06:01:50.721Z,0.00
2023-02-12T06:02:40.825Z,0.00
2023-02-12T06:03:30.700Z,0.00
2023-02-12T06:04:20.786Z,0.00
2023-02-12T06:05:10.705Z,0.00
2023-02-12T06:06:00.679Z,0.00
2023-02-12T06:06:50.678Z,0.00
2023-02-12T06:07:40.668Z,0.00
2023-02-12T06:08:30.653Z,0.00
2023-02-12T06:09:20.667Z,0.00
2023-02-12T06:10:10.653Z,0.00
2023-02-12T06:11:00.648Z,0.00
2023-02-12T06:11:50.613Z,0.00
2023-02-12T06:12:40.604Z,0.00
2023-02-12T06:13:30.596Z,0.00
2023-02-12T06:14:20.586Z,0.00
2023-02-12T06:15:10.586Z,4.00
2023-02-12T06:16:00.723Z,0.00
2023-02-12T06:16:50.549Z,0.00
2023-02-12T06:17:40.549Z,0.00
2023-02-12T06:18:30.547Z,4.00
2023-02-12T06:19:20.533Z,4.00
2023-02-12T06:20:10.535Z,4.00
2023-02-12T06:21:00.514Z,4.00
2023-02-12T06:21:50.513Z,4.00
2023-02-12T06:22:40.497Z,8.00
2023-02-12T06:23:30.495Z,8.00
2023-02-12T06:24:20.489Z,8.00
2023-02-12T06:25:10.467Z,12.00
2023-02-12T06:26:00.462Z,12.00
2023-02-12T06:26:50.445Z,12.00
2023-02-12T06:27:40.445Z,16.00
2023-02-12T06:28:30.448Z,16.00
2023-02-12T06:29:20.456Z,20.00
2023-02-12T06:30:10.425Z,20.00
2023-02-12T06:31:00.481Z,24.00
2023-02-12T06:31:50.511Z,28.00
2023-02-12T06:32:40.397Z,28.00
2023-02-12T06:33:30.375Z,36.00
2023-02-12T06:34:20.383Z,36.00
2023-02-12T06:35:10.387Z,40.00
2023-02-12T06:36:00.357Z,48.00
2023-02-12T06:36:50.341Z,52.00
2023-02-12T06:37:40.348Z,56.00
2023-02-12T06:38:30.323Z,64.00
2023-02-12T06:39:20.316Z,64.00
2023-02-12T06:40:10.323Z,68.00
2023-02-12T06:41:00.298Z,80.00
2023-02-12T06:41:50.314Z,80.00
2023-02-12T06:42:40.278Z,88.00
2023-02-12T06:43:30.272Z,96.00
2023-02-12T06:44:20.256Z,96.00
2023-02-12T06:45:10.255Z,104.00
2023-02-12T06:46:00.258Z,116.00
2023-02-12T06:46:50.290Z,120.00
2023-02-12T06:47:40.223Z,128.00
2023-02-12T06:48:30.214Z,136.00
2023-02-12T06:49:20.206Z,144.00
2023-02-12T06:50:10.197Z,156.00
2023-02-12T06:51:00.184Z,164.00
2023-02-12T06:51:50.198Z,172.00
2023-02-12T06:52:40.174Z,176.00
2023-02-12T06:53:30.158Z,180.00
2023-02-12T06:54:20.147Z,184.00
2023-02-12T06:55:10.144Z,192.00
2023-02-12T06:56:00.135Z,192.00
2023-02-12T06:56:50.147Z,204.00
2023-02-12T06:57:40.113Z,208.00
2023-02-12T06:58:30.128Z,220.00
2023-02-12T06:59:20.103Z,232.00
2023-02-12T07:00:10.093Z,244.00
2023-02-12T07:01:00.117Z,248.00
2023-02-12T07:01:50.097Z,260.00
2023-02-12T07:02:40.063Z,268.00
2023-02-12T07:03:30.088Z,272.00
2023-02-12T07:04:20.065Z,288.00
2023-02-12T07:05:10.042Z,300.00
2023-02-12T07:06:00.040Z,312.00
2023-02-12T07:06:50.144Z,328.00
2023-02-12T07:07:40.009Z,340.00
2023-02-12T07:08:30.011Z,360.00
2023-02-12T07:09:19.990Z,376.00
2023-02-12T07:10:09.992Z,396.00
2023-02-12T07:10:59.963Z,400.00
2023-02-12T07:11:49.971Z,416.00
2023-02-12T07:12:39.951Z,440.00
2023-02-12T07:13:29.962Z,452.00
2023-02-12T07:14:19.938Z,452.00
2023-02-12T07:15:09.929Z,460.00
2023-02-12T07:15:59.952Z,472.00
2023-02-12T07:16:49.968Z,492.00
2023-02-12T07:17:39.892Z,520.00
2023-02-12T07:18:29.892Z,540.00
2023-02-12T07:19:19.889Z,568.00
2023-02-12T07:20:09.887Z,592.00
2023-02-12T07:20:59.860Z,608.00
2023-02-12T07:21:49.852Z,612.00
2023-02-12T07:22:39.838Z,632.00
2023-02-12T07:23:29.839Z,656.00
2023-02-12T07:24:19.852Z,676.00
2023-02-12T07:25:09.825Z,696.00
2023-02-12T07:25:59.816Z,716.00
2023-02-12T07:26:49.809Z,764.00
2023-02-12T07:27:39.786Z,788.00
2023-02-12T07:28:29.795Z,804.00
2023-02-12T07:29:19.777Z,808.00
2023-02-12T07:30:09.775Z,832.00
2023-02-12T07:30:59.782Z,848.00
2023-02-12T07:31:49.820Z,856.00
2023-02-12T07:32:39.729Z,888.00
2023-02-12T07:33:29.724Z,1000.00
2023-02-12T07:34:19.724Z,1124.00
2023-02-12T07:35:09.711Z,1084.00
2023-02-12T07:35:59.696Z,1048.00
2023-02-12T07:36:49.697Z,1068.00
2023-02-12T07:37:39.677Z,1056.00
2023-02-12T07:38:29.702Z,1068.00
2023-02-12T07:39:19.657Z,1084.00
2023-02-12T07:40:09.654Z,1104.00
2023-02-12T07:40:59.634Z,1108.00
2023-02-12T07:41:49.634Z,1084.00
2023-02-12T07:42:39.624Z,1096.00
2023-02-12T07:43:29.649Z,1132.00
2023-02-12T07:44:19.626Z,1180.00
2023-02-12T07:45:09.613Z,1244.00
2023-02-12T07:45:59.639Z,1272.00
2023-02-12T07:46:49.593Z,1244.00
2023-02-12T07:47:39.573Z,1236.00
2023-02-12T07:48:29.576Z,1240.00
2023-02-12T07:49:19.564Z,1244.00
2023-02-12T07:50:09.558Z,1260.00
2023-02-12T07:50:59.532Z,1280.00
2023-02-12T07:51:49.536Z,1296.00
2023-02-12T07:52:39.514Z,1372.00
2023-02-12T07:53:29.506Z,1360.00
2023-02-12T07:54:19.533Z,1424.00
2023-02-12T07:55:09.496Z,1480.00
2023-02-12T07:55:59.472Z,1512.00
2023-02-12T07:56:49.483Z,1504.00
2023-02-12T07:57:39.462Z,1552.00
2023-02-12T07:58:29.452Z,1576.00
2023-02-12T07:59:19.504Z,1656.00
2023-02-12T08:00:09.454Z,1700.00
2023-02-12T08:00:59.432Z,1648.00
2023-02-12T08:01:49.425Z,1736.00
2023-02-12T08:02:39.449Z,1764.00
2023-02-12T08:03:29.406Z,1752.00
2023-02-12T08:04:19.521Z,1728.00
2023-02-12T08:05:09.383Z,1780.00
2023-02-12T08:05:59.386Z,1840.00
2023-02-12T08:06:49.372Z,1796.00
2023-02-12T08:07:39.367Z,1844.00
2023-02-12T08:08:29.348Z,1964.00
2023-02-12T08:09:19.351Z,1988.00
2023-02-12T08:10:09.347Z,2032.00
2023-02-12T08:10:59.320Z,1968.00
2023-02-12T08:11:49.310Z,1864.00
2023-02-12T08:12:39.309Z,1928.00
2023-02-12T08:13:29.296Z,2068.00
2023-02-12T08:14:19.285Z,2052.00
2023-02-12T08:15:09.322Z,2072.00
2023-02-12T08:15:59.258Z,2068.00
2023-02-12T08:16:49.377Z,2032.00
2023-02-12T08:17:39.238Z,2084.00
2023-02-12T08:18:29.237Z,2228.00
2023-02-12T08:19:23.323Z,2400.00
2023-02-12T08:20:10.229Z,2356.00
2023-02-12T08:20:59.220Z,2368.00
2023-02-12T08:21:49.206Z,2424.00
2023-02-12T08:22:39.189Z,2348.00
2023-02-12T08:23:29.180Z,2332.00
2023-02-12T08:24:19.188Z,2576.00
2023-02-12T08:25:09.164Z,2520.00
2023-02-12T08:25:59.161Z,2532.00
2023-02-12T08:26:49.152Z,2624.00
2023-02-12T08:27:39.139Z,2576.00
2023-02-12T08:28:29.171Z,2572.00
2023-02-12T08:29:19.138Z,2532.00
2023-02-12T08:30:09.121Z,2704.00
2023-02-12T08:30:59.128Z,2704.00
2023-02-12T08:31:49.242Z,2704.00
2023-02-12T08:32:39.084Z,2796.00
2023-02-12T08:33:29.078Z,2804.00
2023-02-12T08:34:19.053Z,2812.00
2023-02-12T08:35:09.055Z,2852.00
2023-02-12T08:36:00.137Z,2808.00
2023-02-12T08:36:49.041Z,2976.00
2023-02-12T08:37:39.055Z,2928.00
2023-02-12T08:38:29.025Z,2852.00
2023-02-12T08:39:19.001Z,2940.00
2023-02-12T08:40:09.001Z,3028.00
2023-02-12T08:40:59.032Z,3108.00
2023-02-12T08:41:48.987Z,3172.00
2023-02-12T08:42:38.984Z,3276.00
2023-02-12T08:43:28.963Z,3316.00
2023-02-12T08:44:18.952Z,3396.00
2023-02-12T08:45:08.950Z,3472.00
2023-02-12T08:45:59.176Z,3496.00
2023-02-12T08:46:48.919Z,3588.00
2023-02-12T08:47:38.930Z,3644.00
2023-02-12T08:48:28.906Z,3616.00
2023-02-12T08:49:18.916Z,3632.00
2023-02-12T08:50:08.914Z,3536.00
2023-02-12T08:50:58.876Z,3544.00
2023-02-12T08:51:48.913Z,3408.00
2023-02-12T08:52:38.856Z,3368.00
2023-02-12T08:53:28.848Z,3476.00
2023-02-12T08:54:18.863Z,3512.00
2023-02-12T08:55:08.855Z,3484.00
2023-02-12T08:55:58.821Z,3556.00
2023-02-12T08:56:48.818Z,3704.00
2023-02-12T08:57:38.815Z,3780.00
2023-02-12T08:58:28.792Z,3932.00
2023-02-12T08:59:18.786Z,3924.00
2023-02-12T09:00:08.776Z,3824.00
2023-02-12T09:00:58.814Z,3744.00
2023-02-12T09:01:48.761Z,3808.00
2023-02-12T09:02:38.854Z,3796.00
2023-02-12T09:03:28.734Z,3876.00
2023-02-12T09:04:18.720Z,3844.00
2023-02-12T09:05:08.732Z,3904.00
2023-02-12T09:05:58.823Z,3952.00
2023-02-12T09:06:48.702Z,3932.00
2023-02-12T09:07:38.681Z,3988.00
2023-02-12T09:08:28.692Z,4076.00
2023-02-12T09:09:18.673Z,4092.00
2023-02-12T09:10:08.679Z,4200.00
2023-02-12T09:10:58.654Z,4268.00
2023-02-12T09:11:48.640Z,4356.00
2023-02-12T09:12:38.637Z,4352.00
2023-02-12T09:13:28.622Z,4420.00
2023-02-12T09:14:18.627Z,4340.00
2023-02-12T09:15:08.619Z,4292.00
2023-02-12T09:15:58.875Z,4184.00
2023-02-12T09:16:48.643Z,4224.00
2023-02-12T09:17:38.636Z,4344.00
2023-02-12T09:18:28.569Z,4384.00
2023-02-12T09:19:18.560Z,4380.00
2023-02-12T09:20:08.577Z,4344.00
2023-02-12T09:20:58.547Z,4404.00
2023-02-12T09:21:48.537Z,4400.00
2023-02-12T09:22:38.677Z,4432.00
2023-02-12T09:23:28.520Z,4460.00
2023-02-12T09:24:18.514Z,4488.00
2023-02-12T09:25:08.489Z,4624.00
2023-02-12T09:25:58.865Z,4664.00
2023-02-12T09:26:48.474Z,4608.00
2023-02-12T09:27:38.551Z,4504.00
2023-02-12T09:28:28.480Z,4332.00
2023-02-12T09:29:18.464Z,4304.00
2023-02-12T09:30:08.450Z,4320.00
2023-02-12T09:30:58.599Z,4328.00
2023-02-12T09:31:48.651Z,4408.00
2023-02-12T09:32:38.415Z,4440.00
2023-02-12T09:33:28.397Z,4380.00
2023-02-12T09:34:18.408Z,4288.00
2023-02-12T09:35:08.377Z,4408.00
2023-02-12T09:35:58.444Z,4384.00
2023-02-12T09:36:48.385Z,4464.00
2023-02-12T09:37:38.362Z,4592.00
2023-02-12T09:38:28.354Z,4540.00
2023-02-12T09:39:18.354Z,4472.00
2023-02-12T09:40:08.365Z,4528.00
2023-02-12T09:40:58.325Z,4632.00
2023-02-12T09:41:48.306Z,4740.00
2023-02-12T09:42:38.308Z,4700.00
2023-02-12T09:43:28.322Z,4592.00
2023-02-12T09:44:18.284Z,4716.00
2023-02-12T09:45:08.303Z,4972.00
2023-02-12T09:45:58.795Z,4992.00
2023-02-12T09:46:48.339Z,4924.00
2023-02-12T09:47:38.244Z,5068.00
2023-02-12T09:48:28.251Z,5052.00
2023-02-12T09:49:18.248Z,4932.00
2023-02-12T09:50:08.233Z,4736.00
2023-02-12T09:50:58.224Z,4772.00
2023-02-12T09:51:51.018Z,4676.00
2023-02-12T09:52:38.193Z,4676.00
2023-02-12T09:53:28.196Z,4724.00
2023-02-12T09:54:18.183Z,4632.00
2023-02-12T09:55:08.176Z,4488.00
2023-02-12T09:55:58.461Z,4464.00
2023-02-12T09:56:48.146Z,4648.00
2023-02-12T09:57:38.144Z,5016.00
2023-02-12T09:58:28.126Z,5176.00
2023-02-12T09:59:18.136Z,5300.00
2023-02-12T10:00:08.140Z,5164.00
2023-02-12T10:00:58.119Z,4956.00
2023-02-12T10:01:48.147Z,4860.00
2023-02-12T10:02:38.093Z,4764.00
2023-02-12T10:03:28.075Z,4652.00
2023-02-12T10:04:18.073Z,4632.00
2023-02-12T10:05:08.110Z,4620.00
2023-02-12T10:05:58.370Z,4652.00
2023-02-12T10:06:48.037Z,4668.00
2023-02-12T10:07:38.060Z,4840.00
2023-02-12T10:08:28.056Z,4868.00
2023-02-12T10:09:18.031Z,4960.00
2023-02-12T10:10:08.184Z,5052.00
2023-02-12T10:10:58.011Z,4920.00
2023-02-12T10:11:48.006Z,4708.00
2023-02-12T10:12:38.004Z,4740.00
2023-02-12T10:13:27.968Z,4732.00
2023-02-12T10:14:18.006Z,4664.00
2023-02-12T10:15:07.963Z,4648.00
2023-02-12T10:15:58.372Z,4612.00
2023-02-12T10:16:47.940Z,4632.00
2023-02-12T10:17:38.054Z,4736.00
2023-02-12T10:18:27.919Z,4688.00
2023-02-12T10:19:17.928Z,4856.00
2023-02-12T10:20:07.915Z,4916.00
2023-02-12T10:20:58.256Z,5072.00
2023-02-12T10:21:47.887Z,5180.00
2023-02-12T10:22:48.230Z,5156.00
2023-02-12T10:23:28.868Z,5160.00
2023-02-12T10:24:17.875Z,5144.00
2023-02-12T10:25:07.843Z,5112.00
2023-02-12T10:25:58.121Z,5032.00
2023-02-12T10:26:47.855Z,5004.00
2023-02-12T10:27:37.823Z,4948.00
2023-02-12T10:28:27.852Z,4972.00
2023-02-12T10:29:17.818Z,4944.00
2023-02-12T10:30:07.801Z,4944.00
2023-02-12T10:30:57.939Z,5104.00
2023-02-12T10:31:47.853Z,5216.00
2023-02-12T10:32:37.762Z,5324.00
2023-02-12T10:33:27.743Z,5312.00
2023-02-12T10:34:17.740Z,5356.00
2023-02-12T10:35:07.734Z,5568.00
2023-02-12T10:35:58.029Z,5732.00
2023-02-12T10:36:47.720Z,5828.00
2023-02-12T10:37:37.709Z,5884.00
2023-02-12T10:38:27.700Z,5928.00
2023-02-12T10:39:17.686Z,5916.00
2023-02-12T10:40:07.679Z,5800.00
2023-02-12T10:40:57.689Z,5772.00
2023-02-12T10:41:47.647Z,5760.00
2023-02-12T10:42:37.663Z,5892.00